Time;durP1;ratioP1;P1;durP2;ratioP2;P2;SDS_P1;SDS_P2;PMS_P1;PMS_P2;Temp;Humidity;BMP_temperature;BMP_pressure;BME280_temperature;BME280_humidity;BME280_pressure;Samples;Min_cycle;Max_cycle;Signal;HPM_P1;HPM_P2
2021/09/21 00:00:12;;;;;;;10.65;6.32;;;;;;;9.13;85.56;100771.56;5094650;28;20044;-72
2021/09/21 00:02:40;;;;;;;9.80;6.30;;;;;;;9.08;86.04;100782.44;5094699;28;20067;-72
2021/09/21 00:05:10;;;;;;;8.85;5.60;;;;;;;9.05;85.95;100774.56;5094593;28;20040;-72
2021/09/21 00:07:38;;;;;;;9.70;6.05;;;;;;;9.07;86.09;100770.06;5094171;28;20044;-72
2021/09/21 00:10:08;;;;;;;10.07;5.93;;;;;;;9.09;86.08;100773.53;5094791;28;20044;-72
2021/09/21 00:12:37;;;;;;;9.45;6.00;;;;;;;8.90;86.79;100777.94;5094415;28;20089;-72
2021/09/21 00:15:08;;;;;;;8.73;6.10;;;;;;;8.92;87.02;100773.41;5094365;28;20055;-75
2021/09/21 00:17:39;;;;;;;9.02;6.18;;;;;;;8.92;87.13;100775.22;5094395;28;20055;-76
2021/09/21 00:20:10;;;;;;;10.75;6.28;;;;;;;8.72;87.99;100779.63;5093815;28;20139;-73
2021/09/21 00:22:39;;;;;;;11.80;6.60;;;;;;;8.60;88.88;100775.72;5094485;28;20131;-74
2021/09/21 00:25:09;;;;;;;9.70;6.13;;;;;;;8.69;88.81;100786.88;5093033;28;20055;-73
2021/09/21 00:27:38;;;;;;;9.00;5.80;;;;;;;8.74;88.62;100782.22;5093997;28;20040;-74
2021/09/21 00:30:10;;;;;;;9.77;6.63;;;;;;;8.68;88.84;100783.34;5094211;28;20060;-73
2021/09/21 00:32:43;;;;;;;8.75;5.90;;;;;;;8.49;90.06;100783.31;5093685;28;20040;-73
2021/09/21 00:35:11;;;;;;;10.02;6.43;;;;;;;8.45;90.50;100775.50;5094308;28;20040;-75
2021/09/21 00:37:40;;;;;;;9.35;6.53;;;;;;;8.47;90.50;100789.59;5093754;28;20036;-75
2021/09/21 00:40:10;;;;;;;9.23;6.22;;;;;;;8.55;90.25;100787.47;5094012;28;20051;-75
2021/09/21 00:42:43;;;;;;;9.57;6.63;;;;;;;8.44;90.88;100784.41;5093568;28;20055;-76
2021/09/21 00:45:17;;;;;;;10.30;6.30;;;;;;;8.39;91.04;100786.41;5093674;28;20062;-75
2021/09/21 00:47:47;;;;;;;;;;;;;;;8.65;89.88;100782.63;5094197;28;20048;-73
2021/09/21 00:50:15;;;;;;;9.82;5.53;;;;;;;8.60;90.14;100791.69;5093754;28;19920;-75
2021/09/21 00:52:43;;;;;;;9.30;6.00;;;;;;;8.64;89.90;100803.03;5093685;28;20036;-75
2021/09/21 00:55:13;;;;;;;10.20;5.88;;;;;;;8.59;90.26;100803.25;5093553;28;20037;-75
2021/09/21 00:57:44;;;;;;;8.32;5.93;;;;;;;8.66;89.88;100801.16;5093321;28;20133;-75
2021/09/21 01:00:15;;;;;;;10.80;5.80;;;;;;;8.70;89.97;100797.47;5093700;28;20044;-75
2021/09/21 01:02:44;;;;;;;9.15;6.43;;;;;;;8.67;89.85;100791.38;5093561;28;20040;-74
2021/09/21 01:05:14;;;;;;;10.90;5.68;;;;;;;8.63;90.17;100800.44;5093574;28;20063;-74
2021/09/21 01:07:44;;;;;;;10.77;5.78;;;;;;;8.54;90.70;100799.91;5075272;28;20056;-72
2021/09/21 01:10:16;;;;;;;8.57;5.80;;;;;;;8.63;90.42;100805.75;5093378;28;20495;-72
2021/09/21 01:12:45;;;;;;;9.43;5.90;;;;;;;8.62;90.57;100798.72;5093313;28;20115;-72
2021/09/21 01:15:14;;;;;;;8.75;5.75;;;;;;;8.55;90.67;100809.59;5093239;28;20040;-72
2021/09/21 01:17:43;;;;;;;9.40;5.93;;;;;;;8.62;90.69;100809.34;5092937;28;20040;-74
2021/09/21 01:20:16;;;;;;;8.35;5.25;;;;;;;8.59;90.53;100813.88;5093502;28;20482;-72
2021/09/21 01:22:45;;;;;;;;;;;;;;;8.57;90.59;100810.41;5093334;28;20068;-73
2021/09/21 01:25:15;;;;;;;9.63;5.60;;;;;;;8.59;90.68;100815.69;5093263;28;19920;-73
2021/09/21 01:27:43;;;;;;;10.05;6.05;;;;;;;8.54;90.89;100821.19;5092871;28;20068;-73
2021/09/21 01:30:14;;;;;;;11.05;6.15;;;;;;;8.53;91.25;100816.78;5093362;28;20079;-73
2021/09/21 01:32:43;;;;;;;9.52;5.35;;;;;;;8.67;90.29;100812.66;5092261;28;20464;-73
2021/09/21 01:35:13;;;;;;;8.65;5.53;;;;;;;8.58;90.79;100819.25;5092915;28;20067;-73
2021/09/21 01:37:44;;;;;;;9.68;5.80;;;;;;;8.44;91.01;100817.19;5092984;28;20047;-75
2021/09/21 01:40:13;;;;;;;9.13;5.50;;;;;;;8.56;90.77;100814.00;5092949;28;20090;-75
2021/09/21 01:42:44;;;;;;;8.60;5.20;;;;;;;8.71;89.68;100814.28;5092659;28;20048;-75
2021/09/21 01:45:14;;;;;;;8.50;5.25;;;;;;;8.54;90.32;100810.53;5092913;28;20048;-75
2021/09/21 01:47:44;;;;;;;8.95;5.85;;;;;;;8.45;90.96;100813.59;5092601;28;20414;-75
2021/09/21 01:50:27;;;;;;;8.65;5.75;;;;;;;8.46;90.48;100799.38;5092834;28;20044;-74
2021/09/21 01:52:58;;;;;;;8.05;5.00;;;;;;;8.36;91.01;100811.31;5074572;28;20071;-74
2021/09/21 02:01:00;;;;;;;10.15;5.35;;;;;;;8.30;90.59;100806.25;5091794;28;20067;-73
2021/09/21 02:03:29;;;;;;;8.13;5.32;;;;;;;8.43;89.93;100809.28;5092802;28;20072;-73
2021/09/21 02:05:57;;;;;;;8.85;5.43;;;;;;;8.45;89.59;100812.72;5092488;28;20453;-73
2021/09/21 02:08:26;;;;;;;9.00;6.00;;;;;;;8.37;90.06;100821.03;5092734;28;20510;-73
2021/09/21 02:10:55;;;;;;;12.60;5.78;;;;;;;8.37;90.19;100826.34;5092340;28;20044;-73
2021/09/21 02:13:24;;;;;;;9.30;5.63;;;;;;;8.37;90.30;100821.03;5074993;28;20102;-72
2021/09/21 02:15:52;;;;;;;9.00;5.88;;;;;;;8.37;90.09;100821.03;5092208;28;20047;-71
2021/09/21 02:18:20;;;;;;;9.15;5.85;;;;;;;8.31;90.39;100822.13;5092675;28;20051;-71
2021/09/21 02:20:49;;;;;;;8.65;5.63;;;;;;;8.36;90.45;100829.94;5092246;28;20052;-71
2021/09/21 02:23:17;;;;;;;8.10;5.43;;;;;;;8.28;90.73;100834.66;5074378;28;20079;-71
2021/09/21 02:25:48;;;;;;;10.48;5.80;;;;;;;8.14;91.57;100834.38;5092478;28;20215;-71
2021/09/21 02:28:18;;;;;;;8.30;5.40;;;;;;;8.23;91.13;100834.00;5092707;28;20036;-71
2021/09/21 02:30:47;;;;;;;8.93;5.15;;;;;;;8.24;91.37;100838.38;5092108;28;20052;-71
2021/09/21 02:33:15;;;;;;;12.13;5.82;;;;;;;8.10;92.04;100843.38;5074587;28;20051;-71
2021/09/21 02:35:44;;;;;;;8.52;5.88;;;;;;;8.07;92.50;100843.53;5092355;28;20071;-75
2021/09/21 02:38:12;;;;;;;10.32;5.90;;;;;;;8.12;92.40;100842.41;5092411;28;20123;-70
2021/09/21 02:40:40;;;;;;;8.32;5.63;;;;;;;8.08;92.26;100850.56;5092408;28;20067;-71
2021/09/21 02:43:09;;;;;;;8.00;4.97;;;;;;;8.10;92.58;100854.00;5093970;28;20040;-71
2021/09/21 02:45:39;;;;;;;8.15;5.13;;;;;;;8.18;92.16;100862.53;5096087;28;20032;-73
2021/09/21 02:48:08;;;;;;;9.27;5.88;;;;;;;8.21;92.02;100863.31;5095852;28;20036;-72
2021/09/21 02:50:36;;;;;;;8.43;6.00;;;;;;;8.31;91.61;100869.97;5096131;28;20036;-72
2021/09/21 02:53:06;;;;;;;8.63;5.50;;;;;;;8.72;89.86;100864.75;5095868;28;20498;-74
2021/09/21 02:55:35;;;;;;;9.50;5.60;;;;;;;8.68;89.59;100868.44;5095870;28;20040;-74
2021/09/21 02:58:03;;;;;;;9.00;5.82;;;;;;;8.71;89.53;100873.66;5095550;28;20490;-73
2021/09/21 03:00:32;;;;;;;9.30;5.35;;;;;;;8.77;89.48;100872.50;5077836;28;20079;-72
2021/09/21 03:03:03;;;;;;;9.65;5.45;;;;;;;8.77;89.28;100869.84;5095677;28;20136;-72
2021/09/21 03:05:36;;;;;;;9.13;5.50;;;;;;;8.80;89.09;100867.06;5095757;28;20044;-72
2021/09/21 03:08:09;;;;;;;8.82;5.30;;;;;;;8.80;89.15;100875.94;5095467;28;20035;-72
2021/09/21 03:10:47;;;;;;;;;;;;;;;8.77;89.31;100877.81;5096426;28;20551;-73
2021/09/21 03:13:24;;;;;;;8.40;5.22;;;;;;;8.74;89.37;100870.00;5095772;28;19924;-72
2021/09/21 03:18:40;;;;;;;8.98;5.50;;;;;;;8.86;89.45;100882.75;5095706;28;20047;-72
2021/09/21 03:21:08;;;;;;;8.35;5.18;;;;;;;8.87;89.25;100879.16;5095472;28;20066;-72
2021/09/21 03:23:37;;;;;;;8.45;5.70;;;;;;;8.76;89.95;100876.09;5095382;28;20072;-74
2021/09/21 03:26:05;;;;;;;9.27;5.47;;;;;;;8.80;90.03;100889.22;5095219;28;20376;-74
2021/09/21 03:28:33;;;;;;;10.65;5.53;;;;;;;8.79;89.82;100883.97;5095272;28;20465;-74
2021/09/21 03:31:03;;;;;;;7.40;5.30;;;;;;;8.70;90.43;100885.22;5095419;28;20409;-74
2021/09/21 03:33:31;;;;;;;7.72;5.28;;;;;;;8.65;90.59;100881.88;5095203;28;20126;-74
2021/09/21 03:36:01;;;;;;;7.57;4.80;;;;;;;8.72;90.29;100887.81;5094977;28;20089;-73
2021/09/21 03:38:29;;;;;;;8.38;5.43;;;;;;;8.74;90.35;100888.59;5095109;28;20072;-71
2021/09/21 03:40:57;;;;;;;8.93;5.70;;;;;;;8.72;90.19;100896.66;5094655;28;20070;-72
2021/09/21 03:43:26;;;;;;;9.23;5.05;;;;;;;8.82;89.75;100894.47;5095174;28;20048;-72
2021/09/21 03:45:54;;;;;;;7.47;5.07;;;;;;;8.88;89.29;100902.22;5094811;28;20169;-71
2021/09/21 03:48:24;;;;;;;9.23;5.72;;;;;;;8.73;89.90;100897.53;5094902;28;20062;-71
2021/09/21 03:50:53;;;;;;;9.77;6.30;;;;;;;8.61;90.82;100898.91;5094395;28;20505;-71
2021/09/21 03:53:22;;;;;;;9.55;5.90;;;;;;;8.61;90.74;100898.91;5094978;28;20048;-71
2021/09/21 03:55:50;;;;;;;8.68;6.00;;;;;;;8.56;91.26;100895.56;5075458;28;20048;-73
2021/09/21 03:58:19;;;;;;;9.13;6.20;;;;;;;8.54;91.29;100908.06;5094847;28;20517;-71
2021/09/21 04:00:47;;;;;;;9.38;5.85;;;;;;;8.56;91.38;100906.19;5094630;28;20044;-72
2021/09/21 04:03:15;;;;;;;10.85;6.25;;;;;;;8.58;91.46;100913.19;5094496;28;20056;-71
2021/09/21 04:05:44;;;;;;;9.95;6.03;;;;;;;8.60;91.46;100908.69;5094736;28;20070;-71
2021/09/21 04:08:12;;;;;;;8.93;6.03;;;;;;;8.55;91.64;100913.31;5094156;28;20089;-72
2021/09/21 04:10:42;;;;;;;9.23;5.90;;;;;;;8.36;92.51;100907.00;5094717;28;20091;-72
2021/09/21 04:13:11;;;;;;;11.68;6.20;;;;;;;8.43;92.32;100907.66;5094206;28;20044;-72
2021/09/21 04:15:40;;;;;;;9.40;5.93;;;;;;;8.29;92.94;100902.84;5094283;28;20048;-75
2021/09/21 04:18:09;;;;;;;12.30;5.75;;;;;;;8.46;92.59;100908.38;5094481;28;20040;-75
2021/09/21 04:20:37;;;;;;;9.38;5.82;;;;;;;8.62;91.59;100910.41;5094533;28;20126;-75
2021/09/21 04:23:11;;;;;;;10.13;6.32;;;;;;;8.45;92.51;100919.94;5093969;28;20044;-75
2021/09/21 04:25:39;;;;;;;9.63;6.47;;;;;;;8.26;93.42;100913.59;5093926;28;20502;-74
2021/09/21 04:28:09;;;;;;;9.30;5.72;;;;;;;8.25;93.32;100917.19;5093713;28;20046;-75
2021/09/21 04:30:37;;;;;;;11.55;6.45;;;;;;;8.21;93.41;100905.81;5094203;28;20044;-74
2021/09/21 04:33:06;;;;;;;8.63;5.93;;;;;;;8.35;93.34;100920.38;5093906;28;20044;-74
2021/09/21 04:35:34;;;;;;;9.52;5.93;;;;;;;8.51;92.33;100922.34;5093978;28;20040;-74
2021/09/21 04:38:02;;;;;;;11.68;6.15;;;;;;;8.54;91.88;100924.88;5093571;28;20062;-74
2021/09/21 04:40:31;;;;;;;10.98;5.97;;;;;;;8.40;92.55;100927.25;5093842;28;20063;-74
2021/09/21 04:42:59;;;;;;;9.02;5.90;;;;;;;8.36;92.80;100933.59;5093737;28;20036;-74
2021/09/21 04:45:28;;;;;;;10.20;5.95;;;;;;;8.19;93.92;100931.56;5093856;28;20056;-73
2021/09/21 04:47:57;;;;;;;9.45;6.15;;;;;;;8.41;92.94;100934.28;5093605;28;20044;-72
2021/09/21 04:50:25;;;;;;;8.38;5.50;;;;;;;8.49;92.57;100931.28;5093640;28;20036;-70
2021/09/21 04:52:54;;;;;;;10.90;6.63;;;;;;;8.42;92.58;100935.16;5093158;28;20044;-70
2021/09/21 04:55:22;;;;;;;10.10;5.93;;;;;;;8.56;92.26;100944.28;5093392;28;20040;-69
2021/09/21 04:57:50;;;;;;;9.75;6.25;;;;;;;8.52;92.83;100953.34;5093126;28;20083;-70
2021/09/21 05:00:19;;;;;;;11.95;6.55;;;;;;;8.42;92.78;100954.63;5093449;28;20424;-71
2021/09/21 05:02:48;;;;;;;11.35;6.25;;;;;;;8.48;92.96;100951.69;5093244;28;20052;-69
2021/09/21 05:05:18;;;;;;;9.30;6.35;;;;;;;8.55;92.47;100958.50;5093166;28;20040;-72
2021/09/21 05:07:47;;;;;;;9.05;5.70;;;;;;;8.71;91.60;100956.09;5093543;28;20561;-69
2021/09/21 05:10:16;;;;;;;10.25;6.32;;;;;;;8.83;91.46;100960.03;5093125;28;20482;-76
2021/09/21 05:12:44;;;;;;;10.98;6.03;;;;;;;9.04;90.29;100967.13;5093376;28;20115;-72
2021/09/21 05:15:12;;;;;;;10.13;6.05;;;;;;;8.83;91.04;100976.00;5092610;28;20044;-72
2021/09/21 05:17:41;;;;;;;14.82;7.25;;;;;;;8.89;90.85;100979.28;5092924;28;20074;-72
2021/09/21 05:20:13;;;;;;;12.35;6.60;;;;;;;8.90;91.02;100977.50;5092605;28;20040;-71
2021/09/21 05:22:41;;;;;;;12.73;6.50;;;;;;;9.11;90.11;100979.25;5093337;28;20036;-71
2021/09/21 05:25:11;;;;;;;12.88;6.38;;;;;;;9.15;89.45;100967.53;5093082;28;20036;-72
2021/09/21 05:27:40;;;;;;;12.35;6.60;;;;;;;9.23;89.02;100977.84;5093405;28;20048;-72
2021/09/21 05:30:09;;;;;;;9.45;6.38;;;;;;;9.18;89.50;100986.03;5093090;28;20097;-71
2021/09/21 05:32:37;;;;;;;11.30;6.72;;;;;;;9.53;87.59;100982.75;5092890;28;20070;-71
2021/09/21 05:35:08;;;;;;;11.52;6.82;;;;;;;9.43;88.17;100993.81;5092811;28;20048;-72
2021/09/21 05:37:37;;;;;;;11.75;6.45;;;;;;;9.37;88.67;100993.25;5092823;28;20046;-72
2021/09/21 05:40:07;;;;;;;11.65;6.90;;;;;;;9.57;87.90;100993.22;5091191;28;20044;-74
2021/09/21 05:42:37;;;;;;;11.13;6.40;;;;;;;9.57;87.65;100998.56;5092578;28;20044;-75
2021/09/21 05:45:09;;;;;;;9.95;5.75;;;;;;;9.80;86.65;100999.31;5092356;28;20127;-75
2021/09/21 05:47:40;;;;;;;12.52;7.18;;;;;;;9.75;87.29;100997.75;5092795;28;20047;-75
2021/09/21 05:50:10;;;;;;;9.75;6.32;;;;;;;9.86;86.82;100996.38;5107482;28;20058;-75
2021/09/21 05:52:40;;;;;;;11.93;6.40;;;;;;;9.91;86.47;100997.03;5112789;28;20051;-75
2021/09/21 05:55:10;;;;;;;10.40;5.85;;;;;;;10.16;85.12;101002.97;5112206;28;20040;-76
2021/09/21 05:57:40;;;;;;;9.48;5.55;;;;;;;10.19;84.71;101005.47;5112999;28;20488;-75
2021/09/21 06:00:09;;;;;;;10.93;6.13;;;;;;;10.25;84.49;101007.03;5112451;28;20513;-72
2021/09/21 06:02:38;;;;;;;12.80;6.38;;;;;;;10.31;84.27;101007.59;5113136;28;20052;-72
2021/09/21 06:05:08;;;;;;;11.52;6.50;;;;;;;10.26;84.27;101020.31;5112911;28;20403;-74
2021/09/21 06:07:46;;;;;;;9.77;5.75;;;;;;;10.50;83.53;101017.41;5114793;28;20089;-70
2021/09/21 06:10:15;;;;;;;9.27;6.00;;;;;;;10.46;82.92;101016.69;5112498;28;20503;-71
2021/09/21 06:12:43;;;;;;;11.95;6.15;;;;;;;10.46;83.04;101026.50;5112887;28;20039;-72
2021/09/21 06:15:15;;;;;;;11.73;6.50;;;;;;;10.37;83.22;101022.47;5112770;28;20039;-72
2021/09/21 06:17:44;;;;;;;11.50;6.53;;;;;;;10.53;82.70;101028.81;5114023;28;20040;-76
2021/09/21 06:20:14;;;;;;;11.40;5.95;;;;;;;10.53;83.09;101036.81;5116762;28;20100;-75
2021/09/21 06:22:45;;;;;;;12.48;6.63;;;;;;;10.65;82.22;101043.34;5117044;28;20043;-75
2021/09/21 06:25:16;;;;;;;10.68;5.57;;;;;;;10.63;82.99;101045.25;5117009;28;20039;-76
2021/09/21 06:27:45;;;;;;;14.38;5.65;;;;;;;10.67;81.96;101046.81;5117224;28;20478;-73
2021/09/21 06:30:16;;;;;;;11.13;6.00;;;;;;;10.75;81.68;101054.47;5116496;28;20051;-73
2021/09/21 06:32:44;;;;;;;9.05;5.70;;;;;;;10.92;80.48;101046.50;5116738;28;20046;-76
2021/09/21 06:35:13;;;;;;;8.98;5.00;;;;;;;10.86;79.07;101036.13;5116529;28;20447;-74
2021/09/21 06:37:41;;;;;;;8.55;4.93;;;;;;;11.02;78.40;101054.91;5116990;28;20122;-71
2021/09/21 06:40:12;;;;;;;8.57;6.07;;;;;;;11.13;78.22;101048.09;5116293;28;20065;-71
2021/09/21 06:42:42;;;;;;;9.52;5.28;;;;;;;11.33;76.77;101044.44;5116057;28;20040;-71
2021/09/21 06:45:12;;;;;;;9.10;4.82;;;;;;;11.56;75.58;101047.72;5116387;28;20036;-71
2021/09/21 06:47:41;;;;;;;7.32;4.85;;;;;;;11.58;75.33;101059.19;5116433;28;20128;-71
2021/09/21 06:50:11;;;;;;;8.55;4.43;;;;;;;11.60;73.97;101060.00;5116374;28;20043;-71
2021/09/21 06:52:40;;;;;;;9.23;4.82;;;;;;;11.68;74.24;101066.69;5116618;28;20071;-71
2021/09/21 06:55:11;;;;;;;11.85;5.30;;;;;;;11.60;74.42;101068.00;5116043;28;20066;-71
2021/09/21 06:57:40;;;;;;;7.72;5.15;;;;;;;11.70;74.36;101069.28;5116315;28;20376;-72
2021/09/21 07:00:10;;;;;;;8.95;5.47;;;;;;;11.84;74.31;101069.44;5115895;28;20050;-72
2021/09/21 07:02:39;;;;;;;9.27;5.05;;;;;;;12.02;73.50;101078.28;5116119;28;20119;-71
2021/09/21 07:05:10;;;;;;;10.13;5.50;;;;;;;12.05;73.71;101080.78;5115434;28;20051;-72
2021/09/21 07:07:44;;;;;;;7.28;5.63;;;;;;;12.17;72.40;101081.97;5115503;28;20551;-71
2021/09/21 07:10:19;;;;;;;9.25;5.30;;;;;;;12.19;72.41;101090.78;5115662;28;20065;-71
2021/09/21 07:12:48;;;;;;;8.93;5.78;;;;;;;12.23;72.33;101092.31;5115409;28;20051;-71
2021/09/21 07:15:19;;;;;;;8.38;4.72;;;;;;;12.42;70.86;101094.88;5115243;28;20122;-70
2021/09/21 07:17:47;;;;;;;7.85;5.22;;;;;;;12.43;70.57;101094.78;5115174;28;20036;-71
2021/09/21 07:20:16;;;;;;;7.60;4.88;;;;;;;12.41;70.64;101098.50;5114622;28;20044;-71
2021/09/21 07:22:44;;;;;;;8.00;4.55;;;;;;;12.55;70.03;101103.97;5115054;28;20054;-70
2021/09/21 07:25:13;;;;;;;6.75;3.85;;;;;;;12.65;69.40;101109.69;5114338;28;20116;-70
2021/09/21 07:27:42;;;;;;;9.77;5.50;;;;;;;12.54;69.50;101108.44;5114745;28;20130;-70
2021/09/21 07:30:12;;;;;;;7.45;4.25;;;;;;;12.58;69.46;101110.00;5113522;28;20052;-70
2021/09/21 07:32:40;;;;;;;6.85;4.80;;;;;;;12.65;69.40;101121.25;5115299;28;20152;-70
2021/09/21 07:35:09;;;;;;;8.27;4.80;;;;;;;12.64;68.87;101124.84;5097345;28;20048;-70
2021/09/21 07:37:38;;;;;;;7.95;4.60;;;;;;;12.65;69.20;101131.09;5114986;28;20555;-71
2021/09/21 07:40:08;;;;;;;7.22;4.13;;;;;;;12.61;68.60;101125.03;5115237;28;20043;-71
2021/09/21 07:42:37;;;;;;;7.75;4.55;;;;;;;12.71;68.18;101128.06;5115607;28;20402;-71
2021/09/21 07:45:08;;;;;;;7.72;4.40;;;;;;;12.82;67.41;101137.22;5115198;28;20096;-71
2021/09/21 07:47:37;;;;;;;9.07;4.38;;;;;;;12.86;67.26;101122.75;5114903;28;20066;-71
2021/09/21 07:50:08;;;;;;;6.85;4.35;;;;;;;12.88;67.68;101133.34;5115006;28;20450;-72
2021/09/21 07:52:36;;;;;;;6.90;4.65;;;;;;;12.87;67.48;101129.81;5115235;28;20044;-71
2021/09/21 07:55:05;;;;;;;6.55;4.32;;;;;;;13.03;67.63;101139.69;5115166;28;20044;-74
2021/09/21 07:57:38;;;;;;;7.25;4.03;;;;;;;13.01;65.95;101141.56;5115347;28;20067;-70
2021/09/21 08:00:10;;;;;;;6.80;4.10;;;;;;;13.05;66.04;101141.31;5115092;28;20088;-71
2021/09/21 08:02:38;;;;;;;10.38;4.05;;;;;;;13.10;65.60;101141.91;5115120;28;20067;-70
2021/09/21 08:05:08;;;;;;;5.40;3.55;;;;;;;13.18;65.01;101139.66;5114711;28;20043;-72
2021/09/21 08:07:37;;;;;;;7.50;4.40;;;;;;;13.13;65.41;101144.44;5114880;28;20073;-71
2021/09/21 08:10:07;;;;;;;6.65;4.22;;;;;;;13.22;65.23;101147.53;5114572;28;20051;-72
2021/09/21 08:12:35;;;;;;;8.38;4.30;;;;;;;13.26;65.72;101152.66;5114824;28;20042;-71
2021/09/21 08:15:04;;;;;;;7.32;4.20;;;;;;;13.45;64.93;101156.00;5114677;28;20387;-70
2021/09/21 08:17:34;;;;;;;5.90;3.63;;;;;;;13.46;64.29;101149.69;5114840;28;20047;-71
2021/09/21 08:20:05;;;;;;;6.32;4.22;;;;;;;13.40;64.27;101151.84;5114810;28;20057;-70
2021/09/21 08:22:34;;;;;;;6.97;4.07;;;;;;;13.45;64.48;101152.47;5114644;28;20054;-71
2021/09/21 08:25:03;;;;;;;7.07;4.57;;;;;;;13.61;64.19;101144.41;5114204;28;20097;-70
2021/09/21 08:27:33;;;;;;;6.30;3.90;;;;;;;13.69;63.44;101148.34;5096016;28;20114;-71
2021/09/21 08:30:21;;;;;;;8.05;4.00;;;;;;;13.90;62.60;101145.38;5113616;28;20048;-71
2021/09/21 08:32:51;;;;;;;7.68;4.90;;;;;;;13.85;62.62;101150.13;5114522;28;20440;-71
2021/09/21 08:35:19;;;;;;;7.15;4.50;;;;;;;14.09;61.89;101151.34;5114028;28;20401;-71
2021/09/21 08:37:48;;;;;;;9.43;4.53;;;;;;;14.13;62.02;101146.66;5095746;28;20050;-71
2021/09/21 08:40:16;;;;;;;5.88;3.83;;;;;;;14.21;61.86;101152.41;5113678;28;20505;-71
2021/09/21 08:42:44;;;;;;;7.50;4.07;;;;;;;14.35;61.41;101151.56;5113693;28;20485;-71
2021/09/21 08:45:15;;;;;;;7.53;4.50;;;;;;;14.41;61.20;101141.31;5112949;28;20073;-71
2021/09/21 08:47:44;;;;;;;6.03;4.28;;;;;;;14.55;60.98;101135.09;5113491;28;20051;-71
2021/09/21 08:50:14;;;;;;;8.23;4.22;;;;;;;14.57;60.70;101138.53;5113147;28;20045;-72
2021/09/21 08:52:47;;;;;;;6.88;4.15;;;;;;;14.64;60.01;101141.72;5113330;28;20040;-71
2021/09/21 08:55:17;;;;;;;7.15;4.40;;;;;;;14.83;59.77;101131.53;5112624;28;20044;-72
2021/09/21 08:57:45;;;;;;;10.05;4.40;;;;;;;14.70;60.26;101144.03;5112124;28;20062;-71
2021/09/21 09:00:22;;;;;;;6.97;4.60;;;;;;;14.69;60.28;101127.06;5112859;28;20054;-71
2021/09/21 09:02:50;;;;;;;7.43;4.45;;;;;;;14.72;60.58;101128.69;5113081;28;20051;-70
2021/09/21 09:05:20;;;;;;;9.18;4.35;;;;;;;14.71;60.10;101130.50;5112809;28;20047;-71
2021/09/21 09:07:50;;;;;;;6.53;4.22;;;;;;;14.81;59.83;101130.78;5113581;28;20039;-71
2021/09/21 09:10:19;;;;;;;7.68;4.80;;;;;;;14.89;59.73;101137.38;5095133;28;20116;-71
2021/09/21 09:12:48;;;;;;;8.65;4.68;;;;;;;14.89;59.56;101142.75;5113366;28;20040;-71
2021/09/21 09:15:18;;;;;;;7.47;4.57;;;;;;;14.99;59.54;101128.75;5113117;28;20050;-71
2021/09/21 09:17:56;;;;;;;6.20;3.97;;;;;;;15.23;58.68;101143.25;5113459;28;20047;-71
2021/09/21 09:20:37;;;;;;;7.55;4.60;;;;;;;15.18;58.99;101148.06;5113376;28;20047;-70
2021/09/21 09:23:08;;;;;;;11.30;6.72;;;;;;;15.20;59.69;101151.53;5113688;28;20040;-70
2021/09/21 09:25:41;;;;;;;8.40;5.13;;;;;;;15.33;58.20;101151.56;5095273;28;20048;-71
2021/09/21 09:28:15;;;;;;;9.23;4.80;;;;;;;15.40;57.44;101151.06;5113186;28;20100;-70
2021/09/21 09:30:44;;;;;;;7.82;4.63;;;;;;;15.48;57.90;101141.66;5113759;28;20116;-71
2021/09/21 09:33:13;;;;;;;9.38;4.70;;;;;;;15.71;57.10;101147.22;5113018;28;20051;-71
2021/09/21 09:35:44;;;;;;;7.93;4.68;;;;;;;15.84;56.59;101149.97;5113458;28;20040;-70
2021/09/21 09:38:15;;;;;;;7.60;4.40;;;;;;;15.87;56.36;101157.81;5112984;28;20047;-71
2021/09/21 09:40:46;;;;;;;8.68;4.90;;;;;;;16.08;55.02;101143.84;5113577;28;20040;-70
2021/09/21 09:43:14;;;;;;;6.55;4.30;;;;;;;16.14;55.01;101146.13;5113207;28;20467;-71
2021/09/21 09:45:45;;;;;;;6.07;4.25;;;;;;;16.14;54.41;101143.44;5113389;28;20046;-70
2021/09/21 09:48:17;;;;;;;6.88;4.25;;;;;;;16.10;54.60;101147.31;5113417;28;20039;-71
2021/09/21 09:50:49;;;;;;;7.65;4.68;;;;;;;16.01;54.37;101149.66;5113313;28;20046;-70
2021/09/21 09:53:19;;;;;;;6.65;4.05;;;;;;;16.20;53.79;101143.88;5112076;28;20035;-71
2021/09/21 09:55:50;;;;;;;6.25;4.15;;;;;;;15.92;55.49;101153.00;5113343;28;20050;-71
2021/09/21 09:58:19;;;;;;;8.05;3.83;;;;;;;16.00;55.10;101158.69;5112821;28;20044;-71
2021/09/21 10:00:50;;;;;;;8.23;4.43;;;;;;;16.13;54.00;101152.50;5112991;28;20052;-70
2021/09/21 10:03:19;;;;;;;6.20;4.22;;;;;;;16.09;54.65;101150.97;5112584;28;20043;-71
2021/09/21 10:05:51;;;;;;;5.88;3.80;;;;;;;16.17;54.82;101157.53;5113120;28;20470;-70
2021/09/21 10:08:20;;;;;;;7.35;4.25;;;;;;;16.38;54.34;101151.63;5112791;28;20040;-71
2021/09/21 10:10:48;;;;;;;6.10;4.18;;;;;;;16.32;53.91;101158.31;5112898;28;20042;-71
2021/09/21 10:13:18;;;;;;;6.90;4.35;;;;;;;16.40;53.11;101150.53;5112667;28;20040;-70
2021/09/21 10:15:47;;;;;;;6.68;4.38;;;;;;;16.51;53.34;101155.19;5112683;28;20131;-70
2021/09/21 10:18:17;;;;;;;7.63;4.60;;;;;;;16.51;52.40;101149.81;5112182;28;20101;-72
2021/09/21 10:20:55;;;;;;;8.68;4.55;;;;;;;16.46;52.78;101157.34;5112189;28;20040;-69
2021/09/21 10:23:32;;;;;;;7.05;4.40;;;;;;;16.38;52.71;101157.88;5111335;28;20119;-70
2021/09/21 10:26:13;;;;;;;6.07;4.32;;;;;;;16.47;53.09;101168.00;5111608;28;20047;-71
2021/09/21 10:28:45;;;;;;;6.50;4.40;;;;;;;16.49;52.51;101154.41;5111886;28;20040;-69
2021/09/21 10:31:15;;;;;;;7.85;4.32;;;;;;;16.37;52.90;101150.78;5111910;28;20402;-75
2021/09/21 10:33:44;;;;;;;6.88;4.30;;;;;;;16.36;52.95;101154.44;5111887;28;20067;-70
2021/09/21 10:36:17;;;;;;;6.10;4.57;;;;;;;16.16;53.40;101153.13;5111727;28;20047;-70
2021/09/21 10:39:06;;;;;;;7.33;5.03;;;;;;;16.34;53.03;101151.00;5111899;28;20113;-69
2021/09/21 10:41:51;;;;;;;7.95;5.05;;;;;;;16.36;53.20;101158.97;5111858;28;20039;-70
2021/09/21 10:44:21;;;;;;;8.85;4.82;;;;;;;16.07;52.95;101148.38;5112057;28;20095;-71
2021/09/21 10:46:54;;;;;;;7.75;4.63;;;;;;;16.02;53.03;101147.84;5112064;28;20443;-71
2021/09/21 10:49:25;;;;;;;8.00;4.80;;;;;;;15.87;53.60;101148.88;5112021;28;20044;-71
2021/09/21 10:51:57;;;;;;;8.82;4.50;;;;;;;15.86;53.79;101145.34;5093949;28;20069;-71
2021/09/21 10:54:35;;;;;;;6.90;4.83;;;;;;;15.98;52.96;101149.00;5112469;28;20047;-71
2021/09/21 10:57:06;;;;;;;7.90;4.50;;;;;;;15.87;53.01;101143.50;5112621;28;20036;-71
2021/09/21 10:59:34;;;;;;;7.05;4.57;;;;;;;15.71;53.69;101141.84;5112261;28;20047;-71
2021/09/21 11:02:06;;;;;;;6.75;4.80;;;;;;;15.80;54.27;101148.44;5112492;28;20116;-70
2021/09/21 11:04:42;;;;;;;6.80;4.20;;;;;;;16.09;54.12;101142.88;5114615;28;20090;-71
2021/09/21 11:07:14;;;;;;;8.32;4.80;;;;;;;16.14;52.99;101138.94;5116508;28;20061;-71
2021/09/21 11:09:51;;;;;;;9.15;4.63;;;;;;;16.06;53.77;101140.41;5116187;28;20043;-71
2021/09/21 11:12:22;;;;;;;9.35;4.95;;;;;;;15.80;54.86;101140.38;5115747;28;20513;-70
2021/09/21 11:14:53;;;;;;;8.60;4.32;;;;;;;15.63;55.10;101135.25;5115913;28;20097;-71
2021/09/21 11:17:23;;;;;;;6.45;4.57;;;;;;;15.67;54.86;101137.66;5115817;28;20047;-71
2021/09/21 11:19:53;;;;;;;7.72;5.05;;;;;;;15.72;54.77;101132.81;5115848;28;20133;-71
2021/09/21 11:22:26;;;;;;;7.93;4.85;;;;;;;15.71;54.31;101139.16;5115437;28;20086;-71
2021/09/21 11:25:02;;;;;;;7.30;4.50;;;;;;;15.47;54.78;101127.34;5116021;28;20040;-70
2021/09/21 11:27:30;;;;;;;10.40;4.65;;;;;;;15.41;54.69;101123.22;5115697;28;20407;-71
2021/09/21 11:30:06;;;;;;;7.43;4.80;;;;;;;15.59;53.92;101129.19;5115491;28;20556;-70
2021/09/21 11:32:36;;;;;;;9.18;5.05;;;;;;;15.73;53.32;101118.41;5115342;28;20067;-70
2021/09/21 11:35:07;;;;;;;7.35;4.65;;;;;;;15.78;53.42;101125.31;5115675;28;20088;-70
2021/09/21 11:37:36;;;;;;;8.50;5.18;;;;;;;15.83;52.92;101123.19;5115533;28;20071;-70
2021/09/21 11:40:07;;;;;;;8.70;4.97;;;;;;;15.86;52.61;101123.81;5115577;28;20036;-70
2021/09/21 11:42:36;;;;;;;9.88;4.80;;;;;;;15.79;52.23;101117.13;5115384;28;20466;-70
2021/09/21 11:45:08;;;;;;;7.55;4.80;;;;;;;15.70;52.41;101120.44;5115372;28;20517;-70
2021/09/21 11:47:39;;;;;;;8.48;4.63;;;;;;;15.77;52.35;101124.44;5114915;28;20065;-70
2021/09/21 11:50:10;;;;;;;7.75;5.13;;;;;;;15.92;52.35;101115.34;5115486;28;20413;-70